Time;durP1;ratioP1;P1;durP2;ratioP2;P2;SDS_P1;SDS_P2;PMS_P1;PMS_P2;Temp;Humidity;BMP_temperature;BMP_pressure;BME280_temperature;BME280_humidity;BME280_pressure;Samples;Min_cycle;Max_cycle;Signal;HPM_P1;HPM_P2
2024/03/06 00:01:34;;;;;;;14.27;12.82;;;;;;;7.59;100.00;101653.00;5274189;28;20043;-75
2024/03/06 00:04:06;;;;;;;15.02;13.52;;;;;;;7.54;100.00;101650.69;5282207;28;20370;-75
2024/03/06 00:06:38;;;;;;;14.93;13.32;;;;;;;7.52;100.00;101657.75;5284896;28;20051;-75
2024/03/06 00:09:10;;;;;;;14.68;13.18;;;;;;;7.49;100.00;101650.09;5279695;28;20290;-75
2024/03/06 00:11:42;;;;;;;14.43;12.93;;;;;;;7.49;100.00;101664.91;5285390;28;20432;-75
2024/03/06 00:14:14;;;;;;;13.95;12.38;;;;;;;7.49;100.00;101667.50;5288566;28;20040;-75
2024/03/06 00:16:46;;;;;;;14.10;12.57;;;;;;;7.47;100.00;101666.78;5284759;28;20043;-75
2024/03/06 00:19:18;;;;;;;13.98;12.20;;;;;;;7.42;100.00;101664.41;5286097;28;20095;-75
2024/03/06 00:21:50;;;;;;;14.77;13.13;;;;;;;7.43;100.00;101666.13;5287057;28;20385;-75
2024/03/06 00:24:22;;;;;;;14.18;12.70;;;;;;;7.35;100.00;101678.75;5287892;28;20036;-75
2024/03/06 00:26:54;;;;;;;15.55;13.75;;;;;;;7.34;100.00;101678.84;5283792;28;20024;-75
2024/03/06 00:29:26;;;;;;;15.18;13.52;;;;;;;7.31;100.00;101678.09;5285220;28;20032;-75
2024/03/06 00:31:58;;;;;;;14.93;13.32;;;;;;;7.28;100.00;101672.22;5275768;28;20029;-75
2024/03/06 00:34:30;;;;;;;14.88;12.98;;;;;;;7.27;100.00;101680.94;5286317;28;20392;-75
2024/03/06 00:37:02;;;;;;;15.45;13.13;;;;;;;7.23;100.00;101682.88;5286689;28;20409;-75
2024/03/06 00:39:35;;;;;;;14.20;12.70;;;;;;;7.16;100.00;101684.19;5283685;28;20816;-75
2024/03/06 00:42:08;;;;;;;14.15;12.75;;;;;;;7.16;100.00;101678.97;5285295;28;20039;-75
2024/03/06 00:44:41;;;;;;;14.68;13.15;;;;;;;7.04;100.00;101684.88;5283737;28;20048;-75
2024/03/06 00:47:13;;;;;;;13.55;12.15;;;;;;;7.04;100.00;101683.09;5289165;28;20039;-75
2024/03/06 00:49:45;;;;;;;14.85;12.60;;;;;;;6.98;100.00;101699.09;5283527;28;20059;-75
2024/03/06 00:52:16;;;;;;;15.77;13.00;;;;;;;6.94;100.00;101694.16;5285819;28;20028;-75
2024/03/06 00:54:48;;;;;;;15.23;12.00;;;;;;;6.93;100.00;101695.91;5289347;28;20039;-75
2024/03/06 00:57:20;;;;;;;14.15;12.48;;;;;;;6.89;100.00;101694.38;5287413;28;20110;-75
2024/03/06 00:59:52;;;;;;;14.48;12.93;;;;;;;6.87;100.00;101698.03;5288174;28;20032;-75
2024/03/06 01:02:24;;;;;;;14.60;13.10;;;;;;;6.85;100.00;101698.09;5286737;28;20047;-75
2024/03/06 01:04:56;;;;;;;15.65;13.30;;;;;;;6.83;100.00;101690.38;5285125;28;20047;-75
2024/03/06 01:07:28;;;;;;;16.65;13.85;;;;;;;6.81;100.00;101700.00;5285994;28;20039;-75
2024/03/06 01:10:01;;;;;;;16.45;12.55;;;;;;;6.81;100.00;101702.63;5286080;28;20036;-75
2024/03/06 01:12:33;;;;;;;14.85;12.52;;;;;;;6.82;100.00;101701.72;5285300;28;20033;-75
2024/03/06 01:15:05;;;;;;;16.35;13.45;;;;;;;6.75;100.00;101708.19;5285701;28;20036;-75
2024/03/06 01:17:37;;;;;;;14.82;13.25;;;;;;;6.78;100.00;101705.41;5287072;28;20044;-75
2024/03/06 01:20:09;;;;;;;15.52;13.00;;;;;;;6.76;100.00;101715.06;5287530;28;20327;-75
2024/03/06 01:22:41;;;;;;;15.75;13.50;;;;;;;6.75;100.00;101715.16;5287317;28;20035;-75
2024/03/06 01:25:13;;;;;;;15.30;13.70;;;;;;;6.70;100.00;101701.53;5287144;28;20109;-75
2024/03/06 01:27:45;;;;;;;13.93;12.40;;;;;;;6.72;100.00;101710.94;5288017;28;20038;-75
2024/03/06 01:30:17;;;;;;;15.48;12.70;;;;;;;6.71;100.00;101705.84;5285640;28;20032;-75
2024/03/06 01:32:49;;;;;;;14.73;13.15;;;;;;;6.78;100.00;101715.84;5287710;28;20658;-75
2024/03/06 01:35:21;;;;;;;15.05;13.45;;;;;;;6.61;100.00;101696.84;5285743;28;20478;-75
2024/03/06 01:37:52;;;;;;;13.30;11.98;;;;;;;6.76;100.00;101722.03;5282674;28;20036;-75
2024/03/06 01:40:24;;;;;;;13.60;12.20;;;;;;;6.74;100.00;101731.69;5287044;28;20040;-75
2024/03/06 01:42:56;;;;;;;13.38;11.98;;;;;;;6.73;100.00;101732.63;5286781;28;20610;-75
2024/03/06 01:45:28;;;;;;;14.23;11.65;;;;;;;6.63;100.00;101715.81;5286468;28;20044;-75
2024/03/06 01:48:00;;;;;;;14.25;12.77;;;;;;;6.68;100.00;101725.06;5284216;28;20035;-75
2024/03/06 01:50:32;;;;;;;13.93;12.02;;;;;;;6.71;100.00;101724.91;5282754;28;20043;-75
2024/03/06 01:53:04;;;;;;;13.82;11.20;;;;;;;6.69;100.00;101725.91;5284360;28;21094;-75
2024/03/06 01:55:37;;;;;;;12.63;11.15;;;;;;;6.75;100.00;101728.19;5287422;28;20032;-75
2024/03/06 01:58:09;;;;;;;12.32;11.05;;;;;;;6.75;100.00;101725.59;5284609;28;20044;-75
2024/03/06 02:00:41;;;;;;;14.77;12.00;;;;;;;6.77;100.00;101736.72;5284278;28;20032;-75
2024/03/06 02:03:13;;;;;;;12.90;11.60;;;;;;;6.78;100.00;101735.81;5289122;28;20339;-75
2024/03/06 02:05:46;;;;;;;14.43;10.77;;;;;;;6.75;100.00;101736.00;5283863;28;20162;-75
2024/03/06 02:08:18;;;;;;;12.43;11.13;;;;;;;6.72;100.00;101741.38;5286085;28;20039;-75
2024/03/06 02:10:50;;;;;;;11.60;10.40;;;;;;;6.68;100.00;101745.91;5282013;28;20050;-75
2024/03/06 02:13:22;;;;;;;12.77;11.02;;;;;;;6.67;100.00;101743.38;5287431;28;20489;-75
2024/03/06 02:15:55;;;;;;;11.63;10.40;;;;;;;6.56;100.00;101736.97;5284899;28;20081;-75
2024/03/06 02:18:27;;;;;;;13.52;11.23;;;;;;;6.65;100.00;101748.66;5283427;28;20028;-75
2024/03/06 02:20:58;;;;;;;12.20;10.90;;;;;;;6.55;100.00;101744.84;5282414;28;20031;-75
2024/03/06 02:23:31;;;;;;;12.88;11.25;;;;;;;6.61;100.00;101752.34;5285709;28;20040;-75
2024/03/06 02:26:03;;;;;;;12.93;11.15;;;;;;;6.61;100.00;101752.34;5266174;28;20461;-75
2024/03/06 02:28:34;;;;;;;15.68;13.15;;;;;;;6.62;100.00;101754.03;5284700;28;20051;-75
2024/03/06 02:31:06;;;;;;;13.57;12.18;;;;;;;6.65;100.00;101755.63;5284987;28;20039;-75
2024/03/06 02:33:39;;;;;;;14.00;11.82;;;;;;;6.62;100.00;101758.41;5282118;28;20495;-75
2024/03/06 02:36:11;;;;;;;16.60;14.13;;;;;;;6.69;100.00;101764.97;5285167;28;20043;-75
2024/03/06 02:38:44;;;;;;;15.55;13.95;;;;;;;6.64;100.00;101767.81;5286451;28;20043;-75
2024/03/06 02:41:17;;;;;;;15.75;13.95;;;;;;;6.65;100.00;101760.84;5281221;28;20040;-75
2024/03/06 02:43:48;;;;;;;16.67;14.30;;;;;;;6.61;100.00;101754.97;5286299;28;20162;-75
2024/03/06 02:46:20;;;;;;;14.45;12.73;;;;;;;6.55;100.00;101761.34;5283835;28;20040;-75
2024/03/06 02:48:52;;;;;;;17.38;14.45;;;;;;;6.52;100.00;101760.66;5286980;28;20034;-75
2024/03/06 02:51:24;;;;;;;15.00;13.40;;;;;;;6.48;100.00;101746.97;5283266;28;20036;-75
2024/03/06 02:53:56;;;;;;;15.20;13.60;;;;;;;6.51;100.00;101759.81;5283623;28;20036;-75
2024/03/06 02:56:28;;;;;;;14.70;13.18;;;;;;;6.48;100.00;101759.16;5287188;28;20048;-75
2024/03/06 02:59:02;;;;;;;14.35;12.85;;;;;;;6.42;100.00;101757.69;5284036;28;20048;-75
2024/03/06 03:01:34;;;;;;;15.57;13.30;;;;;;;6.36;100.00;101755.41;5285343;28;20614;-75
2024/03/06 03:04:07;;;;;;;13.43;12.05;;;;;;;6.38;100.00;101761.38;5283302;28;20370;-75
2024/03/06 03:06:39;;;;;;;14.43;12.97;;;;;;;6.38;100.00;101765.75;5282711;28;20028;-75
2024/03/06 03:09:11;;;;;;;13.90;12.50;;;;;;;6.29;100.00;101767.09;5282868;28;20285;-75
2024/03/06 03:11:44;;;;;;;13.93;12.52;;;;;;;6.28;100.00;101762.78;5283869;28;20035;-75
2024/03/06 03:14:16;;;;;;;15.00;12.43;;;;;;;6.30;100.00;101771.34;5281361;28;20023;-75
2024/03/06 03:16:48;;;;;;;14.35;12.88;;;;;;;6.23;100.00;101764.78;5276004;28;20036;-75
2024/03/06 03:19:20;;;;;;;15.02;13.02;;;;;;;6.21;100.00;101775.28;5281554;28;20031;-75
2024/03/06 03:21:52;;;;;;;15.32;12.68;;;;;;;6.14;100.00;101770.44;5281484;28;20385;-75
2024/03/06 03:24:25;;;;;;;15.70;12.88;;;;;;;6.11;100.00;101766.25;5281422;28;20024;-75
2024/03/06 03:26:57;;;;;;;16.58;12.98;;;;;;;6.10;100.00;101769.78;5282619;28;20024;-75
2024/03/06 03:29:29;;;;;;;13.90;12.43;;;;;;;6.06;100.00;101763.91;5281818;28;20051;-75
2024/03/06 03:32:01;;;;;;;15.32;13.73;;;;;;;6.06;100.00;101771.72;5284172;28;20033;-75
2024/03/06 03:34:36;;;;;;;13.98;12.57;;;;;;;6.01;100.00;101752.88;5285535;28;20039;-75
2024/03/06 03:37:08;;;;;;;13.80;12.40;;;;;;;5.99;100.00;101772.09;5281617;28;20554;-75
2024/03/06 03:39:42;;;;;;;14.15;12.65;;;;;;;5.97;100.00;101776.53;5280513;28;20036;-75
2024/03/06 03:42:14;;;;;;;14.98;13.18;;;;;;;5.96;100.00;101765.28;5283729;28;20032;-75
2024/03/06 03:44:45;;;;;;;14.10;12.68;;;;;;;5.86;100.00;101767.47;5284477;28;20036;-75
2024/03/06 03:47:18;;;;;;;15.23;13.55;;;;;;;5.86;100.00;101772.66;5281464;28;20031;-75
2024/03/06 03:49:50;;;;;;;15.48;13.18;;;;;;;5.88;100.00;101774.38;5284259;28;20031;-74
2024/03/06 03:52:22;;;;;;;13.82;12.43;;;;;;;5.69;100.00;101759.69;5281812;28;20042;-74
2024/03/06 03:54:54;;;;;;;14.63;11.88;;;;;;;5.80;100.00;101779.94;5281562;28;20485;-75
2024/03/06 03:57:26;;;;;;;14.77;13.20;;;;;;;5.84;100.00;101784.91;5245664;28;1054963;-74
2024/03/06 03:59:58;;;;;;;13.63;12.23;;;;;;;5.79;100.00;101791.25;5285439;28;20047;-75
2024/03/06 04:02:29;;;;;;;14.88;13.25;;;;;;;5.75;100.00;101790.56;5281593;28;20440;-75
2024/03/06 04:05:01;;;;;;;13.73;12.32;;;;;;;5.74;100.00;101796.69;5282346;28;20032;-75
2024/03/06 04:07:33;;;;;;;14.35;12.85;;;;;;;5.73;100.00;101789.81;5281753;28;20055;-75
2024/03/06 04:10:06;;;;;;;16.90;13.10;;;;;;;5.78;100.00;101794.78;5282507;28;20401;-75
2024/03/06 04:12:39;;;;;;;14.13;12.65;;;;;;;5.82;100.00;101793.69;5285800;28;20043;-75
2024/03/06 04:15:11;;;;;;;15.40;13.40;;;;;;;5.85;100.00;101797.00;5285473;28;20090;-75
2024/03/06 04:17:43;;;;;;;14.93;12.30;;;;;;;5.81;100.00;101787.66;5282181;28;20043;-75
2024/03/06 04:20:15;;;;;;;16.92;13.50;;;;;;;5.82;100.00;101793.69;5265833;28;20048;-75
2024/03/06 04:22:50;;;;;;;13.73;12.23;;;;;;;5.81;100.00;101785.06;5283611;28;20029;-75
2024/03/06 04:25:23;;;;;;;12.73;11.43;;;;;;;5.71;100.00;101789.03;5284909;28;20020;-75
2024/03/06 04:27:55;;;;;;;;;;;;;;;6.46;100.00;101793.06;5279685;28;20468;-75
2024/03/06 04:30:27;;;;;;;14.95;12.25;;;;;;;5.75;100.00;101800.13;5285856;28;19919;-75
2024/03/06 04:32:59;;;;;;;12.77;11.40;;;;;;;5.69;100.00;101800.44;5283248;28;20043;-75
2024/03/06 04:35:31;;;;;;;14.70;11.57;;;;;;;5.63;100.00;101798.13;5284746;28;20482;-75
2024/03/06 04:38:03;;;;;;;13.35;12.05;;;;;;;5.60;100.00;101801.72;5282055;28;20044;-75
2024/03/06 04:40:35;;;;;;;15.40;12.33;;;;;;;5.64;100.00;101805.00;5284956;28;20591;-75
2024/03/06 04:43:07;;;;;;;14.68;13.18;;;;;;;5.54;100.00;101807.22;5280679;28;20052;-75
2024/03/06 04:45:39;;;;;;;13.95;12.20;;;;;;;5.45;100.00;101808.47;5267053;28;20048;-75
2024/03/06 04:48:12;;;;;;;13.77;12.38;;;;;;;5.56;100.00;101823.56;5282666;28;20032;-75
2024/03/06 04:50:44;;;;;;;15.43;12.93;;;;;;;5.60;100.00;101832.91;5285887;28;20476;-75
2024/03/06 04:53:16;;;;;;;15.88;13.13;;;;;;;5.58;100.00;101829.56;5286389;28;20881;-75
2024/03/06 04:55:48;;;;;;;14.15;12.63;;;;;;;5.54;100.00;101839.25;5260869;28;20049;-75
2024/03/06 04:58:20;;;;;;;14.43;12.93;;;;;;;5.51;100.00;101835.97;5287104;28;20052;-75
2024/03/06 05:00:52;;;;;;;14.63;13.13;;;;;;;5.49;100.00;101846.44;5285746;28;20409;-75
2024/03/06 05:03:23;;;;;;;14.27;12.77;;;;;;;5.46;100.00;101845.72;5289118;28;20051;-75
2024/03/06 05:05:56;;;;;;;13.48;12.15;;;;;;;5.46;100.00;101850.94;5287923;28;20043;-75
2024/03/06 05:08:29;;;;;;;15.63;12.38;;;;;;;5.42;100.00;101854.56;5290492;28;20020;-75
2024/03/06 05:11:02;;;;;;;;;;;;;;;6.16;100.00;101857.91;5289239;28;20043;-75
2024/03/06 05:13:33;;;;;;;13.13;11.65;;;;;;;5.47;100.00;101863.00;5271349;28;19920;-75
2024/03/06 05:16:07;;;;;;;13.02;11.70;;;;;;;5.41;100.00;101866.72;5287658;28;20037;-75
2024/03/06 05:18:39;;;;;;;15.05;12.32;;;;;;;5.33;100.00;101864.47;5289848;28;20043;-75
2024/03/06 05:21:11;;;;;;;14.73;11.63;;;;;;;5.28;100.00;101871.66;5288802;28;20032;-75
2024/03/06 05:23:43;;;;;;;13.43;12.07;;;;;;;5.22;100.00;101871.94;5287872;28;20024;-75
2024/03/06 05:26:16;;;;;;;14.65;12.32;;;;;;;5.23;100.00;101872.78;5287090;28;20040;-75
2024/03/06 05:28:48;;;;;;;14.10;12.27;;;;;;;5.19;100.00;101869.50;5287311;28;20028;-75
2024/03/06 05:31:20;;;;;;;14.65;11.52;;;;;;;5.04;100.00;101867.59;5286704;28;20282;-75
2024/03/06 05:33:52;;;;;;;14.32;11.57;;;;;;;5.08;100.00;101880.38;5291996;28;20033;-75
2024/03/06 05:36:24;;;;;;;12.45;10.77;;;;;;;5.06;100.00;101878.75;5289131;28;20035;-75
2024/03/06 05:38:56;;;;;;;13.13;11.65;;;;;;;5.01;100.00;101886.75;5293298;28;20562;-76
2024/03/06 05:41:27;;;;;;;13.18;11.60;;;;;;;4.99;100.00;101888.56;5270925;28;20054;-75
2024/03/06 05:43:59;;;;;;;12.27;10.98;;;;;;;5.00;100.00;101894.59;5293596;28;20036;-75
2024/03/06 05:46:32;;;;;;;12.48;11.13;;;;;;;4.96;100.00;101893.03;5288610;28;20035;-75
2024/03/06 05:49:04;;;;;;;14.00;11.07;;;;;;;4.88;100.00;101883.00;5291753;28;20035;-76
2024/03/06 05:51:36;;;;;;;12.67;11.37;;;;;;;4.85;100.00;101896.97;5294582;28;20055;-75
2024/03/06 05:54:09;;;;;;;12.55;11.23;;;;;;;4.84;100.00;101894.44;5296583;28;20811;-75
2024/03/06 05:56:42;;;;;;;12.73;11.43;;;;;;;4.87;100.00;101912.47;5296854;28;20782;-75
2024/03/06 05:59:15;;;;;;;11.80;10.60;;;;;;;4.87;100.00;101921.09;5279030;28;20044;-75
2024/03/06 06:01:47;;;;;;;12.13;10.90;;;;;;;4.86;100.00;101919.41;5302088;28;20028;-75
2024/03/06 06:04:19;;;;;;;12.73;10.75;;;;;;;4.82;100.00;101925.66;5290458;28;20032;-75
2024/03/06 06:06:52;;;;;;;12.30;10.75;;;;;;;4.83;100.00;101931.69;5288266;28;20035;-75
2024/03/06 06:09:23;;;;;;;11.50;10.20;;;;;;;4.76;100.00;101930.28;5289129;28;20031;-75
2024/03/06 06:11:55;;;;;;;12.25;10.95;;;;;;;4.72;100.00;101919.16;5290708;28;20047;-75
2024/03/06 06:14:29;;;;;;;11.95;10.65;;;;;;;4.78;100.00;101924.13;5269061;28;20036;-75
2024/03/06 06:17:01;;;;;;;13.27;11.73;;;;;;;4.82;100.00;101932.59;5286055;28;20032;-75
2024/03/06 06:19:33;;;;;;;15.05;11.20;;;;;;;4.82;100.00;101935.22;5281276;28;20047;-75
2024/03/06 06:22:05;;;;;;;13.15;11.32;;;;;;;4.83;100.00;101944.69;5286272;28;20472;-74
2024/03/06 06:24:36;;;;;;;13.57;10.82;;;;;;;4.78;100.00;101946.63;5282671;28;20035;-75
2024/03/06 06:27:08;;;;;;;15.00;10.88;;;;;;;4.79;100.00;101937.94;5280617;28;20028;-75
2024/03/06 06:29:41;;;;;;;12.00;10.63;;;;;;;4.79;100.00;101945.72;5288494;28;20124;-75
2024/03/06 06:32:13;;;;;;;13.07;10.63;;;;;;;4.84;100.00;101947.19;5291831;28;20031;-75
2024/03/06 06:34:45;;;;;;;14.85;11.90;;;;;;;4.83;100.00;101948.13;5284785;28;20032;-75
2024/03/06 06:37:19;;;;;;;14.13;11.00;;;;;;;4.92;100.00;101954.66;5289408;28;20047;-75
2024/03/06 06:39:51;;;;;;;13.30;11.70;;;;;;;4.86;100.00;101952.34;5291195;28;20465;-75
2024/03/06 06:42:24;;;;;;;13.88;10.95;;;;;;;4.86;100.00;101957.53;5288798;28;20086;-75
2024/03/06 06:44:56;;;;;;;;;;;;;;;5.58;100.00;101962.13;5288524;28;20040;-75
2024/03/06 06:47:28;;;;;;;12.65;10.35;;;;;;;4.92;100.00;101969.38;5287935;28;19970;-75
2024/03/06 06:50:00;;;;;;;13.25;10.55;;;;;;;4.73;100.00;101945.97;5287844;28;20028;-75
2024/03/06 06:52:33;;;;;;;12.48;10.57;;;;;;;4.87;100.00;101972.19;5265549;28;20039;-75
2024/03/06 06:55:06;;;;;;;11.48;10.07;;;;;;;4.90;100.00;101987.66;5290348;28;20347;-75
2024/03/06 06:57:38;;;;;;;12.23;10.95;;;;;;;4.94;100.00;101978.81;5288967;28;20734;-76
2024/03/06 07:00:13;;;;;;;13.68;10.60;;;;;;;4.95;100.00;101984.84;5281044;28;20032;-75
2024/03/06 07:02:45;;;;;;;14.10;11.43;;;;;;;5.00;100.00;101985.47;5283542;28;20040;-75
2024/03/06 07:05:17;;;;;;;14.68;10.70;;;;;;;5.01;100.00;101990.63;5289245;28;20023;-75
2024/03/06 07:07:49;;;;;;;12.10;10.37;;;;;;;4.95;100.00;101975.31;5270468;28;20067;-75
2024/03/06 07:10:22;;;;;;;12.20;10.40;;;;;;;5.09;100.00;101998.09;5283310;28;20290;-75
2024/03/06 07:12:53;;;;;;;13.65;11.10;;;;;;;5.11;100.00;102001.44;5286559;28;20039;-75
2024/03/06 07:15:26;;;;;;;12.10;9.60;;;;;;;5.15;100.00;102000.41;5278877;28;20027;-75
2024/03/06 07:17:58;;;;;;;13.40;10.13;;;;;;;5.25;100.00;101998.25;5269736;28;20032;-75
2024/03/06 07:20:31;;;;;;;12.20;10.90;;;;;;;5.29;100.00;102005.00;5286055;28;20359;-75
2024/03/06 07:23:04;;;;;;;13.40;11.20;;;;;;;5.38;100.00;101994.22;5286069;28;20504;-75
2024/03/06 07:25:36;;;;;;;12.80;10.93;;;;;;;5.45;100.00;102003.41;5284988;28;20047;-75
2024/03/06 07:28:08;;;;;;;12.80;11.18;;;;;;;5.47;100.00;102004.19;5284407;28;20042;-75
2024/03/06 07:30:40;;;;;;;12.30;11.00;;;;;;;5.54;100.00;102017.75;5268369;28;20673;-75
2024/03/06 07:33:13;;;;;;;13.35;11.95;;;;;;;5.60;100.00;102020.06;5282897;28;20028;-75
2024/03/06 07:35:45;;;;;;;12.73;11.20;;;;;;;5.68;100.00;102017.97;5285524;28;20024;-75
2024/03/06 07:38:17;;;;;;;13.68;11.50;;;;;;;5.77;100.00;102020.16;5288870;28;20028;-75
2024/03/06 07:40:49;;;;;;;13.90;11.60;;;;;;;5.83;100.00;102019.03;5286265;28;20035;-75
2024/03/06 07:43:21;;;;;;;14.70;11.98;;;;;;;5.91;100.00;102031.66;5286554;28;20367;-75
2024/03/06 07:45:53;;;;;;;12.55;11.25;;;;;;;5.98;100.00;102031.34;5270615;28;20044;-75
2024/03/06 07:48:25;;;;;;;14.27;11.35;;;;;;;6.07;100.00;102024.88;5286181;28;20030;-75
2024/03/06 07:50:57;;;;;;;13.48;11.07;;;;;;;6.11;100.00;102029.03;5286049;28;20037;-75
2024/03/06 07:53:29;;;;;;;13.68;11.68;;;;;;;6.17;100.00;102033.09;5288001;28;20423;-75
2024/03/06 07:56:03;;;;;;;13.18;11.57;;;;;;;6.18;100.00;102037.41;5289409;28;20036;-77
2024/03/06 07:58:34;;;;;;;13.07;11.23;;;;;;;6.28;100.00;102038.63;5288908;28;20038;-75
2024/03/06 08:01:07;;;;;;;13.50;12.07;;;;;;;6.33;100.00;102039.28;5287604;28;20032;-75
2024/03/06 08:03:40;;;;;;;13.25;11.85;;;;;;;6.41;100.00;102037.16;5292615;28;20032;-75
2024/03/06 08:06:15;;;;;;;12.30;11.02;;;;;;;6.36;100.00;102030.44;5288843;28;20047;-75
2024/03/06 08:08:47;;;;;;;12.90;11.52;;;;;;;6.45;100.00;102041.28;5286228;28;20397;-75
2024/03/06 08:11:21;;;;;;;14.15;11.85;;;;;;;6.47;100.00;102042.03;5288100;28;20036;-76
2024/03/06 08:14:01;;;;;;;14.65;11.98;;;;;;;6.74;100.00;102063.31;5272376;28;20051;-75
2024/03/06 08:16:33;;;;;;;16.00;11.75;;;;;;;6.73;100.00;102064.19;5288274;28;20275;-76
2024/03/06 08:19:05;;;;;;;13.45;11.90;;;;;;;6.70;100.00;102051.31;5287282;28;20589;-76
2024/03/06 08:21:38;;;;;;;12.95;11.55;;;;;;;6.78;100.00;102056.16;5285406;28;20040;-76
2024/03/06 08:24:10;;;;;;;13.45;11.65;;;;;;;6.89;100.00;102068.66;5286073;28;20043;-76
2024/03/06 08:26:42;;;;;;;17.13;11.80;;;;;;;6.88;100.00;102059.16;5286826;28;20347;-76
2024/03/06 08:29:14;;;;;;;14.88;12.23;;;;;;;7.01;100.00;102079.31;5285274;28;20279;-76
2024/03/06 08:31:46;;;;;;;14.45;11.77;;;;;;;7.07;100.00;102071.19;5289198;28;20028;-76
2024/03/06 08:34:18;;;;;;;12.85;11.40;;;;;;;7.14;100.00;102082.16;5273672;28;20397;-76
2024/03/06 08:36:50;;;;;;;13.90;12.40;;;;;;;7.21;100.00;102087.91;5289333;28;20032;-76
2024/03/06 08:39:21;;;;;;;13.23;11.80;;;;;;;7.24;100.00;102085.97;5291583;28;20344;-76
2024/03/06 08:41:53;;;;;;;13.13;11.48;;;;;;;7.35;100.00;102077.63;5289505;28;20038;-76
2024/03/06 08:44:25;;;;;;;14.15;12.65;;;;;;;7.43;100.00;102075.44;5291635;28;20028;-76
2024/03/06 08:46:57;;;;;;;15.55;12.65;;;;;;;7.56;100.00;102088.69;5288845;28;20443;-76
2024/03/06 08:49:29;;;;;;;17.42;13.13;;;;;;;7.62;100.00;102090.16;5288923;28;20027;-76
2024/03/06 08:52:01;;;;;;;13.98;12.57;;;;;;;7.72;100.00;102092.16;5287714;28;20059;-76
2024/03/06 08:54:33;;;;;;;15.60;12.73;;;;;;;7.79;100.00;102100.50;5287620;28;20037;-76
2024/03/06 08:57:05;;;;;;;14.75;12.35;;;;;;;7.84;100.00;102082.88;5288692;28;20050;-76
2024/03/06 08:59:37;;;;;;;14.65;12.95;;;;;;;8.03;100.00;102095.75;5290832;28;20043;-76
2024/03/06 09:02:18;;;;;;;14.35;12.85;;;;;;;8.26;100.00;102099.72;5290373;28;20033;-76
2024/03/06 09:04:53;;;;;;;14.40;12.10;;;;;;;8.26;100.00;102104.97;5286123;28;20134;-76
2024/03/06 09:07:24;;;;;;;12.68;11.38;;;;;;;8.37;100.00;102107.84;5290058;28;20039;-76
2024/03/06 09:09:56;;;;;;;12.98;10.95;;;;;;;8.46;100.00;102109.94;5288807;28;20020;-76
2024/03/06 09:12:28;;;;;;;14.60;11.82;;;;;;;8.65;100.00;102106.31;5290682;28;20134;-76
2024/03/06 09:15:02;;;;;;;15.95;11.95;;;;;;;8.72;100.00;102110.25;5290196;28;20032;-76
2024/03/06 09:17:34;;;;;;;13.45;11.45;;;;;;;8.81;100.00;102107.09;5287232;28;20048;-76
2024/03/06 09:20:10;;;;;;;10.85;9.82;;;;;;;8.82;100.00;102113.16;5290807;28;20032;-76
2024/03/06 09:22:42;;;;;;;10.88;9.80;;;;;;;8.84;100.00;102108.72;5288657;28;20448;-76
2024/03/06 09:25:14;;;;;;;10.43;9.40;;;;;;;8.89;100.00;102117.13;5291051;28;20504;-76
2024/03/06 09:27:46;;;;;;;11.43;9.95;;;;;;;8.99;100.00;102120.91;5287069;28;20037;-76
2024/03/06 09:30:18;;;;;;;13.45;10.30;;;;;;;8.96;100.00;102118.44;5289794;28;20032;-76
2024/03/06 09:32:49;;;;;;;11.35;10.18;;;;;;;9.06;100.00;102131.84;5285235;28;20032;-76
2024/03/06 09:35:21;;;;;;;11.00;9.95;;;;;;;9.05;100.00;102117.06;5289353;28;20429;-76
2024/03/06 09:37:53;;;;;;;12.02;10.63;;;;;;;9.13;100.00;102117.47;5289778;28;20028;-76
2024/03/06 09:40:25;;;;;;;11.55;10.35;;;;;;;9.25;100.00;102129.84;5287794;28;20028;-76
2024/03/06 09:42:58;;;;;;;12.00;9.82;;;;;;;9.32;100.00;102139.03;5288267;28;20187;-76
2024/03/06 09:45:30;;;;;;;12.07;10.02;;;;;;;9.37;100.00;102136.97;5286938;28;20035;-76
2024/03/06 09:48:02;;;;;;;10.63;9.50;;;;;;;9.47;100.00;102138.09;5288215;28;20036;-76
2024/03/06 09:50:37;;;;;;;12.50;10.13;;;;;;;9.60;100.00;102142.59;5287345;28;20031;-76
2024/03/06 09:53:11;;;;;;;10.98;9.60;;;;;;;9.67;100.00;102144.75;5289077;28;20991;-76
2024/03/06 09:55:46;;;;;;;11.38;9.68;;;;;;;9.97;100.00;102152.53;5288151;28;20385;-76
2024/03/06 09:58:19;;;;;;;10.30;9.30;;;;;;;10.06;100.00;102151.09;5284813;28;20051;-76
2024/03/06 10:00:53;;;;;;;11.23;9.13;;;;;;;10.13;100.00;102155.03;5288438;28;20032;-76
2024/03/06 10:03:24;;;;;;;9.43;8.48;;;;;;;10.26;100.00;102156.91;5288377;28;20460;-76
2024/03/06 10:05:56;;;;;;;11.00;8.68;;;;;;;10.35;100.00;102159.81;5287994;28;20032;-76
2024/03/06 10:08:29;;;;;;;10.35;8.55;;;;;;;10.56;100.00;102152.34;5283277;28;20059;-76
2024/03/06 10:11:01;;;;;;;10.35;8.13;;;;;;;10.77;100.00;102168.50;5287132;28;20477;-76
2024/03/06 10:13:32;;;;;;;8.73;7.70;;;;;;;10.82;100.00;102150.69;5286005;28;20032;-76
2024/03/06 10:16:11;;;;;;;8.43;7.38;;;;;;;11.00;100.00;102158.31;5283305;28;20027;-76
2024/03/06 10:18:43;;;;;;;9.35;8.35;;;;;;;11.10;100.00;102164.59;5286555;28;20035;-76
2024/03/06 10:21:17;;;;;;;9.80;7.82;;;;;;;11.24;100.00;102161.91;5288320;28;20029;-76
2024/03/06 10:23:49;;;;;;;8.23;7.40;;;;;;;11.31;100.00;102160.56;5287358;28;20370;-76
2024/03/06 10:26:21;;;;;;;7.50;6.70;;;;;;;11.41;100.00;102161.63;5263593;28;20051;-75
2024/03/06 10:28:53;;;;;;;7.13;6.37;;;;;;;11.54;100.00;102163.44;5284133;28;20036;-76
2024/03/06 10:31:28;;;;;;;7.68;5.65;;;;;;;11.59;100.00;102170.06;5287139;28;20046;-76
2024/03/06 10:34:00;;;;;;;6.57;5.30;;;;;;;11.69;100.00;102167.63;5283737;28;20039;-76
2024/03/06 10:36:32;;;;;;;6.80;5.38;;;;;;;11.76;100.00;102166.25;5285144;28;20111;-76
2024/03/06 10:39:07;;;;;;;5.97;5.22;;;;;;;11.85;100.00;102163.03;5284543;28;20397;-76
2024/03/06 10:41:40;;;;;;;7.22;5.25;;;;;;;12.07;100.00;102174.69;5283044;28;20036;-76
2024/03/06 10:44:15;;;;;;;5.97;4.50;;;;;;;12.17;100.00;102168.69;5280215;28;20032;-76
2024/03/06 10:46:55;;;;;;;5.60;5.05;;;;;;;12.44;100.00;102164.19;5287578;28;20040;-76
2024/03/06 10:49:29;;;;;;;4.15;3.60;;;;;;;12.37;100.00;102162.00;5283464;28;20036;-76
2024/03/06 10:52:05;;;;;;;4.82;2.88;;;;;;;12.57;100.00;102170.25;5285541;28;20020;-76
2024/03/06 10:54:41;;;;;;;3.50;2.75;;;;;;;12.62;99.28;102165.50;5280901;28;20031;-77
2024/03/06 10:57:14;;;;;;;4.00;1.92;;;;;;;12.79;96.77;102166.91;5284355;28;20043;-76
2024/03/06 10:59:46;;;;;;;4.28;2.80;;;;;;;12.82;97.79;102164.88;5284161;28;20481;-76
2024/03/06 11:02:19;;;;;;;4.75;3.60;;;;;;;12.85;91.39;102174.34;5284489;28;20031;-76
2024/03/06 11:04:51;;;;;;;5.93;3.60;;;;;;;13.02;93.34;102170.47;5281327;28;20151;-77
2024/03/06 11:07:23;;;;;;;5.45;3.40;;;;;;;13.08;91.50;102167.41;5285046;28;20393;-77
2024/03/06 11:09:58;;;;;;;4.13;3.30;;;;;;;13.19;90.76;102169.22;5283590;28;20036;-76
2024/03/06 11:12:39;;;;;;;4.55;3.90;;;;;;;13.36;92.01;102167.03;5286239;28;20636;-76
2024/03/06 11:15:17;;;;;;;5.22;3.40;;;;;;;13.55;90.60;102169.09;5283467;28;20032;-77
2024/03/06 11:17:49;;;;;;;5.05;3.30;;;;;;;13.55;85.26;102168.25;5284257;28;20036;-77
2024/03/06 11:20:23;;;;;;;3.45;2.90;;;;;;;13.73;80.65;102174.75;5283353;28;20028;-76
2024/03/06 11:22:55;;;;;;;4.82;2.88;;;;;;;13.68;73.73;102170.81;5272718;28;20036;-77
2024/03/06 11:26:04;;;;;;;3.22;2.85;;;;;;;14.15;82.16;102169.72;5282438;28;20456;-76
2024/03/06 11:28:37;;;;;;;4.00;2.30;;;;;;;14.01;78.63;102177.88;5282810;28;20469;-77
2024/03/06 11:31:18;;;;;;;5.35;2.90;;;;;;;14.12;79.58;102177.88;5283378;28;20043;-76
2024/03/06 11:33:55;;;;;;;4.47;3.20;;;;;;;14.23;73.59;102180.50;5282931;28;20036;-76
2024/03/06 11:36:30;;;;;;;3.65;2.30;;;;;;;14.18;69.50;102177.41;5283038;28;20395;-76